ROMMA est une association bénévole à but non lucratif. Votre soutien est indispensable : ADHERER à ROMMA ou FAIRE un DON

Grimentz - (CH, Suisse)

Alpes Valaisannes (1710 m)   Longitude: 07° 34' E   Latitude: 46° 11' N Station partenaire n°125
 

Détail journalier du     <<     >>

Température Precipitation Humidité Vent Dir Rafale Dir. rafale Ensol.
Heure (°C) (mm) (%) (km/h) (km/h) (min)
01:00 8.20742NO6ONO0
02:00 8.60672NO8NO0
03:00 12.10542O24SO0
04:00 9.90581O11O0
05:00 9.9059011O0
06:00 10.40542NO8ENE0
07:00 10.70531NO8NO0
08:00 10.705508NNO0
09:00 10.70581NO5NO0
10:00 12.10551---6NO10
11:00 14.80503SSO15S55
12:00 15.20502E11ENE40
13:00 15.70464SSO21SO25
14:00 15.70378SO32SO20
15:00 16.30.23613SO50SO5
16:00 16.203812SO39SSO0
17:00 15.904010O32SSO0
18:00 15.30426SO27SO0
19:00 14.60467SO23SO0
20:00 15.40417O29O0
21:00 12.20553SSO19SO0
22:00 14.80486O26S0
23:00 11.705906E0
minuit 11.20611SO5SO0

Graphique du 20-10-2019

 

Serveur OMMA